Latest Weather Observations for Point Perpendicular

IDN60801

Issued at 11:35 pm EST Wednesday 23 July 2014 (issued every 30 minutes, with the page automatically refreshed every 10 minutes)

About weather observations | Map of weather stations | Latest weather observations for NSW | Other Formats
Station Details ID: 068151 Name: POINT PERPENDICULAR AWS Lat: -35.09 Lon: 150.80 Height: 85.0 m
Data from the previous 72 hours. | See also: Recent months at Point Perpendicular
Date/Time
EST
Temp
°C
App
Temp
°C
Dew
Point
Rel
Hum
%
Delta-T
°C
Wind Press
QNH
hPa
Press
MSL
hPa
Rain
since 9 am
mm
Dir
 
Spd
km/h
Gust
km/h
Spd
kts
Gust
kts
23/11:30pm 11.9 10.4 9.3 84 1.3 WNW 7 9 4 5 1022.4 - 0.0
23/11:00pm 12.1 10.9 9.5 84 1.3 WNW 6 7 3 4 1022.5 1022.6 0.0
23/10:30pm 11.9 10.5 9.6 86 1.2 NW 7 9 4 5 1022.7 - 0.0
23/10:00pm 11.9 10.5 9.6 86 1.2 NNW 7 11 4 6 1022.9 1023.0 0.0
23/09:30pm 12.4 9.8 9.2 81 1.6 NNE 13 15 7 8 1022.9 - 0.0
23/09:00pm 12.4 10.2 9.2 81 1.6 NNE 11 15 6 8 1022.8 1022.9 0.0
23/08:30pm 12.2 9.9 8.9 80 1.7 NNE 11 13 6 7 1022.7 - 0.0
23/08:00pm 12.4 10.1 8.9 79 1.8 NE 11 15 6 8 1022.8 1022.9 0.0
23/07:30pm 12.9 10.7 9.4 79 1.8 NE 11 13 6 7 1022.6 - 0.0
23/07:00pm 13.1 11.3 9.4 78 1.9 NE 9 11 5 6 1022.4 1022.5 0.0
23/06:30pm 13.0 11.1 9.1 77 2.0 NE 9 13 5 7 1022.4 - 0.0
23/06:00pm 13.3 11.5 9.5 78 1.9 ENE 9 13 5 7 1022.2 1022.3 0.0
23/05:30pm 13.3 11.1 9.4 77 2.0 NE 11 13 6 7 1022.0 - 0.0
23/05:00pm 13.6 11.7 9.1 74 2.3 ENE 9 13 5 7 1021.8 1021.9 0.0
23/04:30pm 14.0 12.1 9.0 72 2.5 ENE 9 11 5 6 1021.7 - 0.0
23/04:00pm 14.2 12.2 8.6 69 2.8 E 9 13 5 7 1021.7 1021.8 0.0
23/03:30pm 15.2 13.4 9.3 68 3.0 E 9 15 5 8 1021.7 - 0.0
23/03:00pm 15.4 13.3 8.4 63 3.5 E 9 13 5 7 1021.8 1021.9 0.0
23/02:30pm 15.5 13.5 8.7 64 3.5 ESE 9 15 5 8 1021.8 - 0.0
23/02:00pm 15.3 13.6 8.3 63 3.5 ESE 7 13 4 7 1021.9 1022.0 0.0
23/01:30pm 15.2 13.6 8.7 65 3.3 SE 7 11 4 6 1022.1 - 0.0
23/01:00pm 14.3 12.7 8.0 66 3.1 SSE 6 9 3 5 1022.6 1022.7 0.0
23/12:30pm 14.8 13.0 7.8 63 3.5 SSE 7 17 4 9 1023.0 - 0.0
23/12:00pm 14.6 12.8 8.1 65 3.2 NW 7 11 4 6 1023.8 1023.8 0.0
23/11:30am 14.7 13.3 9.5 71 2.7 W 7 11 4 6 1024.4 - 0.0
23/11:00am 13.9 12.0 8.9 72 2.5 WNW 9 11 5 6 1024.9 1024.9 0.0
23/10:30am 13.6 11.8 9.3 75 2.2 WNW 9 13 5 7 1025.2 - 0.0
23/10:00am 12.8 10.9 8.9 77 2.0 WNW 9 15 5 8 1025.5 1025.5 0.0
23/09:30am 12.2 10.3 9.0 81 1.6 WNW 9 13 5 7 1025.4 - 0.0
23/09:00am 11.7 9.9 9.3 85 1.2 WNW 9 13 5 7 1025.2 1025.2 0.8
23/08:30am 10.7 8.8 9.0 89 0.8 WNW 9 11 5 6 1025.0 - 0.8
23/08:00am 10.0 8.0 8.6 91 0.7 WNW 9 13 5 7 1025.0 1025.0 0.8
23/07:30am 10.2 7.7 8.3 88 0.9 NW 11 13 6 7 1024.9 - 0.8
23/07:00am 9.8 7.6 7.9 88 0.9 WNW 9 11 5 6 1024.6 1024.6 0.8
23/06:30am 10.3 8.1 7.9 85 1.2 WNW 9 11 5 6 1024.3 - 0.8
23/06:00am 10.2 9.6 8.8 91 0.7 WNW 2 9 1 5 1024.0 1024.0 0.8
23/05:30am 9.2 7.0 8.0 92 0.6 NW 9 13 5 7 1023.7 - 0.8
23/05:00am 10.2 8.0 8.0 86 1.1 WNW 9 13 5 7 1023.3 1023.4 0.8
23/04:30am 11.9 10.5 8.9 82 1.5 W 6 7 3 4 1023.1 - 0.8
23/04:00am 10.9 9.3 8.8 87 1.0 W 7 9 4 5 1023.2 1023.3 0.8
23/03:30am 11.3 9.4 8.9 85 1.2 WSW 9 11 5 6 1023.2 - 0.8
23/03:00am 11.8 10.0 9.4 85 1.2 W 9 11 5 6 1023.4 1023.5 0.8
23/02:30am 12.2 10.3 9.2 82 1.5 WSW 9 11 5 6 1023.8 - 0.8
23/02:00am 12.2 10.3 9.2 82 1.5 WSW 9 11 5 6 1023.8 1023.8 0.8
23/01:30am 12.2 10.5 9.8 85 1.2 WSW 9 11 5 6 1023.9 - 0.8
23/01:00am 12.4 10.7 9.8 84 1.3 WSW 9 13 5 7 1024.0 1024.0 0.8
23/12:30am 12.3 10.5 9.5 83 1.4 WSW 9 13 5 7 1024.2 - 0.8
23/12:00am 12.3 10.6 10.0 86 1.2 WSW 9 13 5 7 1024.3 1024.3 0.8
 
Date/Time
EST
Temp
°C
App
Temp
°C
Dew
Point
Rel
Hum
%
Delta-T
°C
Wind Press
QNH
hPa
Press
MSL
hPa
Rain
since 9 am
mm
Dir
 
Spd
km/h
Gust
km/h
Spd
kts
Gust
kts
22/11:30pm 12.0 10.3 9.9 87 1.1 WSW 9 13 5 7 1024.4 - 0.8
22/11:00pm 12.3 10.7 10.2 87 1.1 WSW 9 13 5 7 1024.5 1024.5 0.8
22/10:30pm 12.1 10.6 10.5 90 0.8 W 9 13 5 7 1024.5 - 0.8
22/10:00pm 12.2 11.0 10.4 89 0.9 WSW 7 9 4 5 1024.4 1024.4 0.8
22/09:30pm 12.4 11.3 10.6 89 0.9 WSW 7 11 4 6 1024.4 - 0.8
22/09:00pm 12.8 12.0 11.0 89 0.9 W 6 7 3 4 1024.4 1024.4 0.8
22/08:30pm 13.0 11.2 10.9 87 1.1 W 11 15 6 8 1024.3 - 0.8
22/08:00pm 13.5 12.9 10.3 81 1.7 W 4 9 2 5 1024.5 1024.5 0.2
22/07:30pm 14.3 14.2 9.3 72 2.6 CALM 0 4 0 2 1024.4 - 0.0
22/07:00pm 14.4 13.0 9.6 73 2.5 S 7 11 4 6 1024.2 1024.2 0.0
22/06:30pm 14.1 12.6 9.3 73 2.5 S 7 11 4 6 1024.1 - 0.0
22/06:00pm 14.1 12.3 9.5 74 2.4 SSE 9 11 5 6 1023.7 1023.7 0.0
22/05:30pm 13.7 12.3 9.4 75 2.2 SSE 7 11 4 6 1023.4 - 0.0
22/05:00pm 13.8 11.9 9.0 73 2.4 SSE 9 13 5 7 1023.1 1023.2 0.0
22/04:30pm 14.1 12.3 9.5 74 2.4 SSE 9 15 5 8 1022.9 - 0.0
22/04:00pm 14.6 12.4 9.4 71 2.7 SSE 11 20 6 11 1022.8 1022.9 0.0
22/03:30pm 14.8 12.6 9.4 70 2.8 SSE 11 17 6 9 1022.7 - 0.0
22/03:00pm 14.8 12.3 9.6 71 2.7 SSE 13 20 7 11 1022.6 1022.7 0.0
22/02:30pm 14.9 12.7 9.5 70 2.8 SSE 11 15 6 8 1022.7 - 0.0
22/02:00pm 15.0 13.0 10.0 72 2.6 S 11 15 6 8 1022.7 1022.8 0.0
22/01:30pm 14.4 12.4 10.0 75 2.3 S 11 20 6 11 1022.8 - 0.0
22/01:00pm 14.9 13.1 10.7 76 2.2 S 11 17 6 9 1023.0 1023.1 0.0
22/12:30pm 14.3 12.4 10.5 78 2.0 S 11 17 6 9 1023.2 - 0.0
22/12:00pm 13.7 11.4 10.3 80 1.8 SSW 13 20 7 11 1023.9 1023.9 0.0
22/11:30am 13.9 12.1 10.7 81 1.7 SSW 11 17 6 9 1024.5 - 0.0
22/11:00am 13.7 12.4 10.1 79 1.9 WSW 7 11 4 6 1024.9 1024.9 0.0
22/10:30am 13.0 11.2 9.6 80 1.7 WSW 9 15 5 8 1025.1 - 0.0
22/10:00am 12.4 10.7 9.8 84 1.3 W 9 11 5 6 1025.1 1025.1 0.0
22/09:30am 11.8 10.4 9.7 87 1.1 WNW 7 11 4 6 1025.1 - 0.0
22/09:00am 10.9 9.1 9.5 91 0.7 WNW 9 13 5 7 1025.0 1025.0 0.0
22/08:30am 10.4 8.6 9.6 95 0.4 WNW 9 11 5 6 1024.9 - 0.0
22/08:00am 9.8 8.3 9.3 97 0.2 WNW 7 9 4 5 1024.6 1024.6 0.0
22/07:30am 9.6 8.1 9.0 96 0.3 WNW 7 9 4 5 1024.4 - 0.0
22/07:00am 9.4 7.8 8.6 95 0.4 WNW 7 9 4 5 1024.2 1024.2 0.0
22/06:30am 10.6 8.8 9.5 93 0.6 WNW 9 11 5 6 1023.9 - 0.0
22/06:00am 11.5 10.0 10.4 93 0.6 WNW 9 11 5 6 1023.8 1023.8 0.0
22/05:30am 11.9 10.7 10.3 90 0.8 W 7 9 4 5 1023.3 - 0.0
22/05:00am 11.4 10.1 10.1 92 0.7 WNW 7 9 4 5 1023.3 1023.4 0.0
22/04:30am 10.9 9.2 9.7 92 0.6 WNW 9 9 5 5 1023.2 - 0.0
22/04:00am 11.7 10.0 9.9 89 0.9 WNW 9 11 5 6 1023.2 1023.3 0.0
22/03:30am 11.6 10.3 10.0 90 0.8 W 7 7 4 4 1023.3 - 0.0
22/03:00am 10.9 9.8 10.0 94 0.5 WNW 6 7 3 4 1023.3 1023.4 0.0
22/02:30am 10.5 9.0 9.3 92 0.6 WNW 7 9 4 5 1023.3 - 0.0
22/02:00am 11.1 10.0 9.9 92 0.6 WNW 6 7 3 4 1023.6 1023.6 0.0
22/01:30am 11.3 10.0 9.9 91 0.7 WNW 7 9 4 5 1023.7 - 0.0
22/01:00am 11.7 10.4 10.1 90 0.8 WNW 7 9 4 5 1023.9 1023.9 0.0
22/12:30am 11.9 10.7 10.3 90 0.8 W 7 9 4 5 1024.0 - 0.0
22/12:00am 11.7 10.0 9.9 89 0.9 WNW 9 9 5 5 1024.2 1024.2 0.0
 
Date/Time
EST
Temp
°C
App
Temp
°C
Dew
Point
Rel
Hum
%
Delta-T
°C
Wind Press
QNH
hPa
Press
MSL
hPa
Rain
since 9 am
mm
Dir
 
Spd
km/h
Gust
km/h
Spd
kts
Gust
kts
21/11:30pm 12.2 10.9 9.9 86 1.2 WNW 7 9 4 5 1024.3 - 0.0
21/11:00pm 12.4 11.3 10.1 86 1.2 W 6 7 3 4 1024.5 1024.5 0.0
21/10:30pm 12.6 11.5 10.5 87 1.1 W 7 9 4 5 1024.6 - 0.0
21/10:00pm 12.4 11.3 9.8 84 1.3 WNW 6 7 3 4 1024.6 1024.6 0.0
21/09:30pm 13.7 12.6 9.9 78 2.0 E 6 9 3 5 1024.6 - 0.0
21/09:00pm 13.8 12.6 9.5 75 2.2 E 6 9 3 5 1024.7 1024.7 0.0
21/08:30pm 13.8 12.0 9.5 75 2.2 E 9 11 5 6 1024.6 - 0.0
21/08:00pm 13.9 12.1 9.3 74 2.3 E 9 11 5 6 1024.5 1024.5 0.0
21/07:30pm 13.9 12.6 9.9 77 2.1 E 7 11 4 6 1024.6 - 0.0
21/07:00pm 14.0 12.5 9.2 73 2.4 E 7 11 4 6 1024.4 1024.4 0.0
21/06:30pm 14.1 13.0 8.5 69 2.8 ESE 4 9 2 5 1024.3 - 0.0
21/06:00pm 13.9 12.4 8.3 69 2.8 SE 6 7 3 4 1024.1 1024.1 0.0
21/05:30pm 13.6 11.8 8.0 69 2.8 SE 7 13 4 7 1023.9 - 0.0
21/05:00pm 13.9 12.5 8.9 72 2.5 SE 6 9 3 5 1023.8 1023.8 0.0
21/04:30pm 13.9 12.3 8.7 71 2.6 SE 7 13 4 7 1023.8 - 0.0
21/04:00pm 14.5 12.7 9.5 72 2.6 SSE 9 13 5 7 1023.6 1023.6 0.0
21/03:30pm 14.3 12.1 9.3 72 2.6 SSE 11 15 6 8 1023.7 - 0.0
21/03:00pm 14.6 12.4 9.4 71 2.7 S 11 17 6 9 1023.8 1023.8 0.0
21/02:30pm 14.3 12.2 9.7 74 2.4 SSE 11 17 6 9 1023.8 - 0.0
21/02:00pm 14.1 11.9 9.5 74 2.4 S 11 15 6 8 1023.8 1023.8 0.0
21/01:30pm 14.0 12.0 10.0 77 2.1 S 11 17 6 9 1024.0 - 0.0
21/01:00pm 13.9 11.7 9.3 74 2.3 S 11 17 6 9 1024.4 1024.4 0.0
21/12:30pm 14.2 11.6 9.4 73 2.5 S 13 20 7 11 1024.7 - 0.0
21/12:00pm 13.6 11.2 8.7 72 2.5 WSW 11 15 6 8 1025.2 1025.2 0.0
21/11:30am 13.3 11.5 9.4 77 2.0 WSW 9 13 5 7 1025.7 - 0.0
21/11:00am 12.6 10.7 8.9 78 1.9 W 9 13 5 7 1026.2 1026.2 0.0
21/10:30am 11.3 9.1 7.8 79 1.7 W 9 11 5 6 1026.4 - 0.0
21/10:00am 11.3 9.1 7.8 79 1.7 WNW 9 11 5 6 1026.7 1026.7 0.0
21/09:30am 11.0 9.1 7.7 80 1.6 W 7 11 4 6 1026.7 - 0.0
21/09:00am 11.1 9.3 8.0 81 1.5 W 7 9 4 5 1026.7 1026.7 0.0
21/08:30am 10.4 8.1 7.6 83 1.3 WNW 9 11 5 6 1026.6 - 0.0
21/08:00am 9.3 7.0 7.3 87 0.9 WNW 9 13 5 7 1026.7 1026.7 0.0
21/07:30am 8.6 5.8 6.9 89 0.8 WNW 11 13 6 7 1026.6 - 0.0
21/07:00am 8.4 5.5 6.5 88 0.9 WNW 11 15 6 8 1026.4 1026.4 0.0
21/06:30am 9.3 6.5 6.9 85 1.1 WNW 11 13 6 7 1026.2 - 0.0
21/06:00am 10.5 8.1 7.2 80 1.6 WNW 9 11 5 6 1026.1 1026.1 0.0
21/05:30am 10.8 8.1 7.3 79 1.7 WNW 11 13 6 7 1025.9 - 0.0
21/05:00am 10.9 8.5 7.0 77 1.8 WNW 9 11 5 6 1025.8 1025.8 0.0
21/04:30am 10.7 8.3 7.0 78 1.8 WNW 9 11 5 6 1025.6 - 0.0
21/04:00am 10.7 8.3 7.0 78 1.8 W 9 11 5 6 1025.5 1025.5 0.0
21/03:30am 9.8 7.4 7.2 84 1.2 WNW 9 13 5 7 1025.6 - 0.0
21/03:00am 11.2 8.7 6.7 74 2.1 WNW 9 11 5 6 1025.8 1025.8 0.0
21/02:30am 10.7 8.0 7.4 80 1.6 WNW 11 13 6 7 1025.8 - 0.0
21/02:00am 10.6 7.8 6.9 78 1.7 W 11 13 6 7 1025.7 1025.7 0.0
21/01:30am 11.0 8.3 7.5 79 1.7 WNW 11 13 6 7 1025.9 - 0.0
21/01:00am 10.8 8.1 7.3 79 1.7 WNW 11 13 6 7 1025.9 1025.9 0.0
21/12:30am 11.1 8.7 6.8 75 2.0 WNW 9 11 5 6 1025.9 - 0.0
21/12:00am 10.5 8.2 7.6 82 1.4 WNW 9 11 5 6 1026.2 1026.2 0.0

Other Formats:

Comma delimited format used in spreadsheet applications
http://www.bom.gov.au/fwo/IDN60801/IDN60801.95940.axf

JavaScript Object Notation format (JSON) in row-major order
http://www.bom.gov.au/fwo/IDN60801/IDN60801.95940.json